sensor_id;sensor_type;location;lat;lon;timestamp;temperature;humidity
12959;DHT22;6544;51.666;6.634;2023-04-24T00:01:06;11.00;1.00
12959;DHT22;6544;51.666;6.634;2023-04-24T00:03:33;11.00;1.00
12959;DHT22;6544;51.666;6.634;2023-04-24T00:06:02;11.10;1.00
12959;DHT22;6544;51.666;6.634;2023-04-24T00:08:30;11.00;1.00
12959;DHT22;6544;51.666;6.634;2023-04-24T00:10:59;11.00;1.00
12959;DHT22;6544;51.666;6.634;2023-04-24T00:13:27;11.10;1.00
12959;DHT22;6544;51.666;6.634;2023-04-24T00:15:55;11.10;1.00
12959;DHT22;6544;51.666;6.634;2023-04-24T00:18:22;11.00;1.00
12959;DHT22;6544;51.666;6.634;2023-04-24T00:20:49;11.10;1.00
12959;DHT22;6544;51.666;6.634;2023-04-24T00:23:16;11.10;1.00
12959;DHT22;6544;51.666;6.634;2023-04-24T00:25:42;11.10;1.00
12959;DHT22;6544;51.666;6.634;2023-04-24T00:28:11;11.10;1.00
12959;DHT22;6544;51.666;6.634;2023-04-24T00:30:38;11.10;1.00
12959;DHT22;6544;51.666;6.634;2023-04-24T00:33:05;11.20;1.00
12959;DHT22;6544;51.666;6.634;2023-04-24T00:35:32;11.10;1.00
12959;DHT22;6544;51.666;6.634;2023-04-24T00:37:59;11.10;1.00
12959;DHT22;6544;51.666;6.634;2023-04-24T00:40:27;11.10;1.00
12959;DHT22;6544;51.666;6.634;2023-04-24T00:42:54;11.00;1.00
12959;DHT22;6544;51.666;6.634;2023-04-24T00:45:23;11.10;1.00
12959;DHT22;6544;51.666;6.634;2023-04-24T00:47:52;11.10;1.00
12959;DHT22;6544;51.666;6.634;2023-04-24T00:50:21;11.00;1.00
12959;DHT22;6544;51.666;6.634;2023-04-24T00:52:48;11.10;1.00
12959;DHT22;6544;51.666;6.634;2023-04-24T00:55:14;11.00;1.00
12959;DHT22;6544;51.666;6.634;2023-04-24T00:57:41;10.90;1.00
12959;DHT22;6544;51.666;6.634;2023-04-24T01:00:10;10.90;1.00
12959;DHT22;6544;51.666;6.634;2023-04-24T01:02:42;10.90;1.00
12959;DHT22;6544;51.666;6.634;2023-04-24T01:05:11;10.90;1.00
12959;DHT22;6544;51.666;6.634;2023-04-24T01:07:39;11.00;1.00
12959;DHT22;6544;51.666;6.634;2023-04-24T01:10:11;11.10;1.00
12959;DHT22;6544;51.666;6.634;2023-04-24T01:12:39;11.00;1.00
12959;DHT22;6544;51.666;6.634;2023-04-24T01:15:08;11.00;1.00
12959;DHT22;6544;51.666;6.634;2023-04-24T01:17:35;11.00;1.00
12959;DHT22;6544;51.666;6.634;2023-04-24T01:20:04;10.90;1.00
12959;DHT22;6544;51.666;6.634;2023-04-24T01:22:33;10.90;1.00
12959;DHT22;6544;51.666;6.634;2023-04-24T01:25:01;10.80;99.90
12959;DHT22;6544;51.666;6.634;2023-04-24T01:27:28;10.80;1.00
12959;DHT22;6544;51.666;6.634;2023-04-24T01:29:54;10.70;1.00
12959;DHT22;6544;51.666;6.634;2023-04-24T01:32:22;10.70;1.00
12959;DHT22;6544;51.666;6.634;2023-04-24T01:34:49;10.70;1.00
12959;DHT22;6544;51.666;6.634;2023-04-24T01:37:17;10.60;1.00
12959;DHT22;6544;51.666;6.634;2023-04-24T01:39:45;10.60;1.00
12959;DHT22;6544;51.666;6.634;2023-04-24T01:42:12;10.60;1.00
12959;DHT22;6544;51.666;6.634;2023-04-24T01:44:40;10.70;1.00
12959;DHT22;6544;51.666;6.634;2023-04-24T01:47:08;10.70;99.90
12959;DHT22;6544;51.666;6.634;2023-04-24T01:49:35;10.60;99.90
12959;DHT22;6544;51.666;6.634;2023-04-24T01:52:04;10.60;99.90
12959;DHT22;6544;51.666;6.634;2023-04-24T01:54:31;10.50;1.00
12959;DHT22;6544;51.666;6.634;2023-04-24T01:56:59;10.50;1.00
12959;DHT22;6544;51.666;6.634;2023-04-24T01:59:28;10.50;1.00
12959;DHT22;6544;51.666;6.634;2023-04-24T02:01:55;10.50;1.00
12959;DHT22;6544;51.666;6.634;2023-04-24T02:04:21;10.50;1.00
12959;DHT22;6544;51.666;6.634;2023-04-24T02:06:48;10.50;1.00
12959;DHT22;6544;51.666;6.634;2023-04-24T02:09:16;10.50;1.00
12959;DHT22;6544;51.666;6.634;2023-04-24T02:11:43;10.50;1.00
12959;DHT22;6544;51.666;6.634;2023-04-24T02:14:12;10.50;1.00
12959;DHT22;6544;51.666;6.634;2023-04-24T02:16:38;10.50;1.00
12959;DHT22;6544;51.666;6.634;2023-04-24T02:19:05;10.40;1.00
12959;DHT22;6544;51.666;6.634;2023-04-24T02:21:32;10.40;1.00
12959;DHT22;6544;51.666;6.634;2023-04-24T02:23:59;10.40;1.00
12959;DHT22;6544;51.666;6.634;2023-04-24T02:26:26;10.40;99.90
12959;DHT22;6544;51.666;6.634;2023-04-24T02:28:53;10.30;99.90
12959;DHT22;6544;51.666;6.634;2023-04-24T02:31:21;10.20;1.00
12959;DHT22;6544;51.666;6.634;2023-04-24T02:33:48;10.20;1.00
12959;DHT22;6544;51.666;6.634;2023-04-24T02:36:16;10.20;99.90
12959;DHT22;6544;51.666;6.634;2023-04-24T02:38:45;10.20;99.90
12959;DHT22;6544;51.666;6.634;2023-04-24T02:41:15;10.20;99.90
12959;DHT22;6544;51.666;6.634;2023-04-24T02:43:42;10.20;99.90
12959;DHT22;6544;51.666;6.634;2023-04-24T02:46:14;10.30;99.90
12959;DHT22;6544;51.666;6.634;2023-04-24T02:48:45;10.20;99.90
12959;DHT22;6544;51.666;6.634;2023-04-24T02:51:12;10.20;99.90
12959;DHT22;6544;51.666;6.634;2023-04-24T02:53:38;10.20;99.90
12959;DHT22;6544;51.666;6.634;2023-04-24T02:56:05;10.20;99.90
12959;DHT22;6544;51.666;6.634;2023-04-24T02:58:32;10.20;99.90
12959;DHT22;6544;51.666;6.634;2023-04-24T03:00:59;10.20;99.90
12959;DHT22;6544;51.666;6.634;2023-04-24T03:03:27;10.20;99.90
12959;DHT22;6544;51.666;6.634;2023-04-24T03:05:55;10.20;99.90
12959;DHT22;6544;51.666;6.634;2023-04-24T03:08:22;10.30;99.90
12959;DHT22;6544;51.666;6.634;2023-04-24T03:10:49;10.30;99.90
12959;DHT22;6544;51.666;6.634;2023-04-24T03:13:16;10.30;99.90
12959;DHT22;6544;51.666;6.634;2023-04-24T03:15:43;10.30;99.90
12959;DHT22;6544;51.666;6.634;2023-04-24T03:18:12;10.40;96.70
12959;DHT22;6544;51.666;6.634;2023-04-24T03:20:39;10.30;99.90
12959;DHT22;6544;51.666;6.634;2023-04-24T03:23:07;10.30;99.90
12959;DHT22;6544;51.666;6.634;2023-04-24T03:25:34;10.30;99.90
12959;DHT22;6544;51.666;6.634;2023-04-24T03:28:01;10.20;99.90
12959;DHT22;6544;51.666;6.634;2023-04-24T03:30:28;10.20;99.90
12959;DHT22;6544;51.666;6.634;2023-04-24T03:32:55;10.20;99.90
12959;DHT22;6544;51.666;6.634;2023-04-24T03:35:22;10.10;99.90
12959;DHT22;6544;51.666;6.634;2023-04-24T03:37:49;10.20;99.90
12959;DHT22;6544;51.666;6.634;2023-04-24T03:40:17;10.20;99.90
12959;DHT22;6544;51.666;6.634;2023-04-24T03:42:44;10.20;99.90
12959;DHT22;6544;51.666;6.634;2023-04-24T03:45:11;10.20;99.90
12959;DHT22;6544;51.666;6.634;2023-04-24T03:47:37;10.20;99.90
12959;DHT22;6544;51.666;6.634;2023-04-24T03:50:05;10.20;99.90
12959;DHT22;6544;51.666;6.634;2023-04-24T03:52:32;10.20;99.90
12959;DHT22;6544;51.666;6.634;2023-04-24T03:54:59;10.20;99.90
12959;DHT22;6544;51.666;6.634;2023-04-24T03:57:28;10.20;99.90
12959;DHT22;6544;51.666;6.634;2023-04-24T03:59:55;10.30;99.90
12959;DHT22;6544;51.666;6.634;2023-04-24T04:02:22;10.30;1.00
12959;DHT22;6544;51.666;6.634;2023-04-24T04:04:49;10.30;1.00
12959;DHT22;6544;51.666;6.634;2023-04-24T04:07:16;10.20;1.00
12959;DHT22;6544;51.666;6.634;2023-04-24T04:09:44;10.30;62.20
12959;DHT22;6544;51.666;6.634;2023-04-24T04:12:13;10.30;91.10
12959;DHT22;6544;51.666;6.634;2023-04-24T04:14:41;10.30;1.00
12959;DHT22;6544;51.666;6.634;2023-04-24T04:17:08;10.30;1.00
12959;DHT22;6544;51.666;6.634;2023-04-24T04:19:35;10.30;1.00
12959;DHT22;6544;51.666;6.634;2023-04-24T04:22:05;10.20;1.00
12959;DHT22;6544;51.666;6.634;2023-04-24T04:24:33;10.20;1.00
12959;DHT22;6544;51.666;6.634;2023-04-24T04:27:03;10.20;1.00
12959;DHT22;6544;51.666;6.634;2023-04-24T04:29:31;10.20;1.00
12959;DHT22;6544;51.666;6.634;2023-04-24T04:31:59;10.20;1.00
12959;DHT22;6544;51.666;6.634;2023-04-24T04:34:27;10.20;1.00
12959;DHT22;6544;51.666;6.634;2023-04-24T04:36:54;10.20;1.00
12959;DHT22;6544;51.666;6.634;2023-04-24T04:39:21;10.20;1.00
12959;DHT22;6544;51.666;6.634;2023-04-24T04:42:00;10.20;1.00
12959;DHT22;6544;51.666;6.634;2023-04-24T04:44:27;10.20;36.50
12959;DHT22;6544;51.666;6.634;2023-04-24T04:46:56;10.30;1.00
12959;DHT22;6544;51.666;6.634;2023-04-24T04:49:26;10.20;1.00
12959;DHT22;6544;51.666;6.634;2023-04-24T04:51:54;10.20;1.00
12959;DHT22;6544;51.666;6.634;2023-04-24T04:54:21;10.20;1.00
12959;DHT22;6544;51.666;6.634;2023-04-24T04:56:49;10.30;1.00
12959;DHT22;6544;51.666;6.634;2023-04-24T04:59:16;10.30;1.00
12959;DHT22;6544;51.666;6.634;2023-04-24T05:01:43;10.30;1.00
12959;DHT22;6544;51.666;6.634;2023-04-24T05:04:10;10.30;1.00
12959;DHT22;6544;51.666;6.634;2023-04-24T05:06:38;10.30;1.00
12959;DHT22;6544;51.666;6.634;2023-04-24T05:09:05;10.30;1.00
12959;DHT22;6544;51.666;6.634;2023-04-24T05:11:33;10.30;1.20
12959;DHT22;6544;51.666;6.634;2023-04-24T05:14:00;10.20;99.90
12959;DHT22;6544;51.666;6.634;2023-04-24T05:16:27;10.10;99.90
12959;DHT22;6544;51.666;6.634;2023-04-24T05:18:54;10.10;99.90
12959;DHT22;6544;51.666;6.634;2023-04-24T05:21:21;10.00;99.90
12959;DHT22;6544;51.666;6.634;2023-04-24T05:23:49;10.00;99.90
12959;DHT22;6544;51.666;6.634;2023-04-24T05:26:16;10.00;1.00
12959;DHT22;6544;51.666;6.634;2023-04-24T05:28:43;9.90;1.00
12959;DHT22;6544;51.666;6.634;2023-04-24T05:31:10;9.90;1.00
12959;DHT22;6544;51.666;6.634;2023-04-24T05:33:37;9.90;99.90
12959;DHT22;6544;51.666;6.634;2023-04-24T05:39:28;9.80;99.90
12959;DHT22;6544;51.666;6.634;2023-04-24T05:41:56;9.80;99.90
12959;DHT22;6544;51.666;6.634;2023-04-24T05:44:24;9.80;1.00
12959;DHT22;6544;51.666;6.634;2023-04-24T05:46:51;9.90;99.90
12959;DHT22;6544;51.666;6.634;2023-04-24T05:49:18;9.80;99.90
12959;DHT22;6544;51.666;6.634;2023-04-24T05:51:45;9.80;99.90
12959;DHT22;6544;51.666;6.634;2023-04-24T05:54:12;9.70;99.90
12959;DHT22;6544;51.666;6.634;2023-04-24T05:56:40;9.70;1.00
12959;DHT22;6544;51.666;6.634;2023-04-24T05:59:07;9.70;1.00
12959;DHT22;6544;51.666;6.634;2023-04-24T06:01:35;9.70;1.00
12959;DHT22;6544;51.666;6.634;2023-04-24T06:04:02;9.60;1.00
12959;DHT22;6544;51.666;6.634;2023-04-24T06:06:29;9.60;1.00
12959;DHT22;6544;51.666;6.634;2023-04-24T06:08:56;9.60;1.00
12959;DHT22;6544;51.666;6.634;2023-04-24T06:11:24;9.60;1.00
12959;DHT22;6544;51.666;6.634;2023-04-24T06:13:52;9.60;1.00
12959;DHT22;6544;51.666;6.634;2023-04-24T06:16:19;9.60;99.90
12959;DHT22;6544;51.666;6.634;2023-04-24T06:18:46;9.70;99.90
12959;DHT22;6544;51.666;6.634;2023-04-24T06:21:14;9.50;99.90
12959;DHT22;6544;51.666;6.634;2023-04-24T06:23:41;9.50;1.00
12959;DHT22;6544;51.666;6.634;2023-04-24T06:26:08;9.50;45.80
12959;DHT22;6544;51.666;6.634;2023-04-24T06:28:35;9.40;99.90
12959;DHT22;6544;51.666;6.634;2023-04-24T06:31:03;9.50;99.90
12959;DHT22;6544;51.666;6.634;2023-04-24T06:33:30;9.50;99.90
12959;DHT22;6544;51.666;6.634;2023-04-24T06:35:57;9.50;99.90
12959;DHT22;6544;51.666;6.634;2023-04-24T06:38:24;9.60;99.90
12959;DHT22;6544;51.666;6.634;2023-04-24T06:40:51;9.60;99.90
12959;DHT22;6544;51.666;6.634;2023-04-24T06:43:18;9.60;99.90
12959;DHT22;6544;51.666;6.634;2023-04-24T06:45:46;9.50;99.90
12959;DHT22;6544;51.666;6.634;2023-04-24T06:48:14;9.50;1.00
12959;DHT22;6544;51.666;6.634;2023-04-24T06:50:41;9.50;99.90
12959;DHT22;6544;51.666;6.634;2023-04-24T06:53:08;9.50;96.80
12959;DHT22;6544;51.666;6.634;2023-04-24T06:55:36;9.40;99.90
12959;DHT22;6544;51.666;6.634;2023-04-24T06:58:08;9.50;99.90
12959;DHT22;6544;51.666;6.634;2023-04-24T07:00:35;9.50;1.00
12959;DHT22;6544;51.666;6.634;2023-04-24T07:03:02;9.50;99.90
12959;DHT22;6544;51.666;6.634;2023-04-24T07:05:32;9.50;1.00
12959;DHT22;6544;51.666;6.634;2023-04-24T07:08:00;9.50;1.00
12959;DHT22;6544;51.666;6.634;2023-04-24T07:10:27;9.50;1.00
12959;DHT22;6544;51.666;6.634;2023-04-24T07:12:54;9.50;93.70
12959;DHT22;6544;51.666;6.634;2023-04-24T07:15:22;9.60;99.90
12959;DHT22;6544;51.666;6.634;2023-04-24T07:17:48;9.60;1.00
12959;DHT22;6544;51.666;6.634;2023-04-24T07:20:16;9.70;99.90
12959;DHT22;6544;51.666;6.634;2023-04-24T07:22:44;9.70;1.00
12959;DHT22;6544;51.666;6.634;2023-04-24T07:25:11;9.70;1.00
12959;DHT22;6544;51.666;6.634;2023-04-24T07:27:38;9.70;1.00
12959;DHT22;6544;51.666;6.634;2023-04-24T07:30:06;9.70;1.00
12959;DHT22;6544;51.666;6.634;2023-04-24T07:32:33;9.70;1.00
12959;DHT22;6544;51.666;6.634;2023-04-24T07:35:00;9.70;1.00
12959;DHT22;6544;51.666;6.634;2023-04-24T07:37:28;9.80;1.00
12959;DHT22;6544;51.666;6.634;2023-04-24T07:39:57;9.80;1.00
12959;DHT22;6544;51.666;6.634;2023-04-24T07:42:24;9.70;1.00
12959;DHT22;6544;51.666;6.634;2023-04-24T07:44:50;9.50;1.00
12959;DHT22;6544;51.666;6.634;2023-04-24T07:47:17;9.50;99.90
12959;DHT22;6544;51.666;6.634;2023-04-24T07:49:44;9.50;1.00
12959;DHT22;6544;51.666;6.634;2023-04-24T07:52:11;9.50;1.00
12959;DHT22;6544;51.666;6.634;2023-04-24T07:54:41;9.50;18.90
12959;DHT22;6544;51.666;6.634;2023-04-24T07:57:09;9.50;99.90
12959;DHT22;6544;51.666;6.634;2023-04-24T07:59:36;9.60;1.00
12959;DHT22;6544;51.666;6.634;2023-04-24T08:02:03;9.60;99.90
12959;DHT22;6544;51.666;6.634;2023-04-24T08:04:31;9.60;1.00
12959;DHT22;6544;51.666;6.634;2023-04-24T08:06:59;9.60;1.00
12959;DHT22;6544;51.666;6.634;2023-04-24T08:09:25;9.60;99.90
12959;DHT22;6544;51.666;6.634;2023-04-24T08:11:52;9.70;99.90
12959;DHT22;6544;51.666;6.634;2023-04-24T08:14:21;9.70;99.90
12959;DHT22;6544;51.666;6.634;2023-04-24T08:16:48;9.70;99.90
12959;DHT22;6544;51.666;6.634;2023-04-24T08:19:15;9.50;85.20
12959;DHT22;6544;51.666;6.634;2023-04-24T08:21:41;9.60;1.00
12959;DHT22;6544;51.666;6.634;2023-04-24T08:24:08;9.50;1.00
12959;DHT22;6544;51.666;6.634;2023-04-24T08:26:35;9.40;1.00
12959;DHT22;6544;51.666;6.634;2023-04-24T08:29:02;9.40;99.90
12959;DHT22;6544;51.666;6.634;2023-04-24T08:31:31;9.50;99.90
12959;DHT22;6544;51.666;6.634;2023-04-24T08:33:58;9.40;99.90
12959;DHT22;6544;51.666;6.634;2023-04-24T08:36:25;9.30;1.00
12959;DHT22;6544;51.666;6.634;2023-04-24T08:38:52;9.50;1.00
12959;DHT22;6544;51.666;6.634;2023-04-24T08:41:19;9.40;1.00
12959;DHT22;6544;51.666;6.634;2023-04-24T08:43:46;9.30;1.00
12959;DHT22;6544;51.666;6.634;2023-04-24T08:46:15;9.30;1.00
12959;DHT22;6544;51.666;6.634;2023-04-24T08:48:44;9.30;1.00
12959;DHT22;6544;51.666;6.634;2023-04-24T08:51:11;9.40;1.00
12959;DHT22;6544;51.666;6.634;2023-04-24T08:53:39;9.40;1.00
12959;DHT22;6544;51.666;6.634;2023-04-24T08:56:07;9.50;1.00
12959;DHT22;6544;51.666;6.634;2023-04-24T08:58:35;9.30;1.00
12959;DHT22;6544;51.666;6.634;2023-04-24T09:01:05;9.40;1.00
12959;DHT22;6544;51.666;6.634;2023-04-24T09:03:33;9.40;1.00
12959;DHT22;6544;51.666;6.634;2023-04-24T09:06:02;9.40;1.00
12959;DHT22;6544;51.666;6.634;2023-04-24T09:08:29;9.20;1.00
12959;DHT22;6544;51.666;6.634;2023-04-24T09:10:57;9.00;1.00
12959;DHT22;6544;51.666;6.634;2023-04-24T09:13:27;8.80;1.00
12959;DHT22;6544;51.666;6.634;2023-04-24T09:15:55;8.90;1.00
12959;DHT22;6544;51.666;6.634;2023-04-24T09:18:23;8.80;1.00
12959;DHT22;6544;51.666;6.634;2023-04-24T09:21:01;8.70;1.00
12959;DHT22;6544;51.666;6.634;2023-04-24T09:23:29;8.70;1.00
12959;DHT22;6544;51.666;6.634;2023-04-24T09:25:57;8.70;1.00
12959;DHT22;6544;51.666;6.634;2023-04-24T09:28:26;8.60;1.00
12959;DHT22;6544;51.666;6.634;2023-04-24T09:31:07;8.60;1.00
12959;DHT22;6544;51.666;6.634;2023-04-24T09:33:34;8.50;1.00
12959;DHT22;6544;51.666;6.634;2023-04-24T09:36:03;8.50;1.00
12959;DHT22;6544;51.666;6.634;2023-04-24T09:38:32;8.50;1.00
12959;DHT22;6544;51.666;6.634;2023-04-24T09:41:00;8.50;1.00
12959;DHT22;6544;51.666;6.634;2023-04-24T09:43:28;8.50;1.00
12959;DHT22;6544;51.666;6.634;2023-04-24T09:45:56;8.60;17.90
12959;DHT22;6544;51.666;6.634;2023-04-24T09:48:31;8.50;1.00
12959;DHT22;6544;51.666;6.634;2023-04-24T09:50:58;8.60;25.50
12959;DHT22;6544;51.666;6.634;2023-04-24T09:53:27;8.70;82.90
12959;DHT22;6544;51.666;6.634;2023-04-24T09:55:54;8.70;1.00
12959;DHT22;6544;51.666;6.634;2023-04-24T09:58:25;8.80;38.10
12959;DHT22;6544;51.666;6.634;2023-04-24T10:00:55;8.90;1.00
12959;DHT22;6544;51.666;6.634;2023-04-24T10:03:24;8.90;1.00
12959;DHT22;6544;51.666;6.634;2023-04-24T10:05:53;8.80;1.00
12959;DHT22;6544;51.666;6.634;2023-04-24T10:08:20;9.00;8.70
12959;DHT22;6544;51.666;6.634;2023-04-24T10:10:49;8.90;1.00
12959;DHT22;6544;51.666;6.634;2023-04-24T10:13:17;8.80;1.00
12959;DHT22;6544;51.666;6.634;2023-04-24T10:15:44;8.90;76.00
12959;DHT22;6544;51.666;6.634;2023-04-24T10:18:12;8.90;2.70
12959;DHT22;6544;51.666;6.634;2023-04-24T10:20:40;8.80;1.00
12959;DHT22;6544;51.666;6.634;2023-04-24T10:23:07;8.80;1.00
12959;DHT22;6544;51.666;6.634;2023-04-24T10:25:35;8.70;99.90
12959;DHT22;6544;51.666;6.634;2023-04-24T10:28:05;8.70;1.00
12959;DHT22;6544;51.666;6.634;2023-04-24T10:30:46;8.80;99.90
12959;DHT22;6544;51.666;6.634;2023-04-24T10:33:16;8.80;1.00
12959;DHT22;6544;51.666;6.634;2023-04-24T10:35:47;8.90;99.90
12959;DHT22;6544;51.666;6.634;2023-04-24T10:38:18;8.90;99.90
12959;DHT22;6544;51.666;6.634;2023-04-24T10:40:49;8.90;1.00
12959;DHT22;6544;51.666;6.634;2023-04-24T10:43:18;8.80;99.90
12959;DHT22;6544;51.666;6.634;2023-04-24T10:46:00;8.90;1.00
12959;DHT22;6544;51.666;6.634;2023-04-24T10:48:28;8.90;99.90
12959;DHT22;6544;51.666;6.634;2023-04-24T10:50:55;8.90;99.90
12959;DHT22;6544;51.666;6.634;2023-04-24T10:53:24;9.00;99.90
12959;DHT22;6544;51.666;6.634;2023-04-24T10:55:57;9.10;1.00
12959;DHT22;6544;51.666;6.634;2023-04-24T10:58:36;9.20;1.00
12959;DHT22;6544;51.666;6.634;2023-04-24T11:01:04;9.30;1.00
12959;DHT22;6544;51.666;6.634;2023-04-24T11:03:32;9.50;99.90
12959;DHT22;6544;51.666;6.634;2023-04-24T11:06:01;9.50;99.90
12959;DHT22;6544;51.666;6.634;2023-04-24T11:08:30;9.60;1.00
12959;DHT22;6544;51.666;6.634;2023-04-24T11:11:00;9.70;1.00
12959;DHT22;6544;51.666;6.634;2023-04-24T11:14:01;9.80;1.00
12959;DHT22;6544;51.666;6.634;2023-04-24T11:16:30;9.80;1.00
12959;DHT22;6544;51.666;6.634;2023-04-24T11:19:03;9.90;1.00
12959;DHT22;6544;51.666;6.634;2023-04-24T11:21:42;10.00;1.00
12959;DHT22;6544;51.666;6.634;2023-04-24T11:24:29;10.20;1.00
12959;DHT22;6544;51.666;6.634;2023-04-24T11:26:58;10.30;1.00
12959;DHT22;6544;51.666;6.634;2023-04-24T11:29:46;10.20;99.90
12959;DHT22;6544;51.666;6.634;2023-04-24T11:32:24;10.30;99.90
12959;DHT22;6544;51.666;6.634;2023-04-24T11:34:52;10.60;99.90
12959;DHT22;6544;51.666;6.634;2023-04-24T11:37:22;10.70;99.90
12959;DHT22;6544;51.666;6.634;2023-04-24T11:39:51;10.50;99.90
12959;DHT22;6544;51.666;6.634;2023-04-24T11:42:18;10.50;99.90
12959;DHT22;6544;51.666;6.634;2023-04-24T11:44:48;10.60;99.90
12959;DHT22;6544;51.666;6.634;2023-04-24T11:47:15;10.60;99.90
12959;DHT22;6544;51.666;6.634;2023-04-24T11:49:43;10.40;43.40
12959;DHT22;6544;51.666;6.634;2023-04-24T11:52:10;10.40;46.00
12959;DHT22;6544;51.666;6.634;2023-04-24T11:54:37;10.60;37.90
12959;DHT22;6544;51.666;6.634;2023-04-24T11:57:06;10.50;1.00
12959;DHT22;6544;51.666;6.634;2023-04-24T11:59:36;10.70;15.30
12959;DHT22;6544;51.666;6.634;2023-04-24T12:02:05;10.70;51.30
12959;DHT22;6544;51.666;6.634;2023-04-24T12:04:39;10.80;8.20
12959;DHT22;6544;51.666;6.634;2023-04-24T12:07:19;10.60;30.40
12959;DHT22;6544;51.666;6.634;2023-04-24T12:09:47;10.70;24.20
12959;DHT22;6544;51.666;6.634;2023-04-24T12:12:15;10.40;1.00
12959;DHT22;6544;51.666;6.634;2023-04-24T12:14:47;10.50;99.90
12959;DHT22;6544;51.666;6.634;2023-04-24T12:17:16;10.40;99.90
12959;DHT22;6544;51.666;6.634;2023-04-24T12:19:47;10.60;99.90
12959;DHT22;6544;51.666;6.634;2023-04-24T12:22:14;10.50;76.00
12959;DHT22;6544;51.666;6.634;2023-04-24T12:25:01;10.80;85.50
12959;DHT22;6544;51.666;6.634;2023-04-24T12:27:32;10.50;59.40
12959;DHT22;6544;51.666;6.634;2023-04-24T12:30:01;10.50;39.50
12959;DHT22;6544;51.666;6.634;2023-04-24T12:32:29;10.40;1.00
12959;DHT22;6544;51.666;6.634;2023-04-24T12:34:56;10.60;1.00
12959;DHT22;6544;51.666;6.634;2023-04-24T12:37:24;10.40;1.00
12959;DHT22;6544;51.666;6.634;2023-04-24T12:40:02;10.50;4.60
12959;DHT22;6544;51.666;6.634;2023-04-24T12:42:30;10.70;53.60
12959;DHT22;6544;51.666;6.634;2023-04-24T12:44:57;10.90;18.30
12959;DHT22;6544;51.666;6.634;2023-04-24T12:47:26;10.80;1.00
12959;DHT22;6544;51.666;6.634;2023-04-24T12:50:00;10.70;74.50
12959;DHT22;6544;51.666;6.634;2023-04-24T12:52:29;10.60;67.60
12959;DHT22;6544;51.666;6.634;2023-04-24T12:54:58;10.20;79.00
12959;DHT22;6544;51.666;6.634;2023-04-24T12:57:26;10.10;99.90
12959;DHT22;6544;51.666;6.634;2023-04-24T12:59:53;9.90;99.90
12959;DHT22;6544;51.666;6.634;2023-04-24T13:02:21;10.10;99.90
12959;DHT22;6544;51.666;6.634;2023-04-24T13:04:48;10.10;99.90
12959;DHT22;6544;51.666;6.634;2023-04-24T13:07:16;10.10;99.90
12959;DHT22;6544;51.666;6.634;2023-04-24T13:09:44;10.20;99.90
12959;DHT22;6544;51.666;6.634;2023-04-24T13:12:12;10.40;96.30
12959;DHT22;6544;51.666;6.634;2023-04-24T13:14:40;10.40;69.80
12959;DHT22;6544;51.666;6.634;2023-04-24T13:17:07;10.30;87.40
12959;DHT22;6544;51.666;6.634;2023-04-24T13:19:36;10.40;77.00
12959;DHT22;6544;51.666;6.634;2023-04-24T13:22:04;10.40;20.20
12959;DHT22;6544;51.666;6.634;2023-04-24T13:24:33;10.40;45.40
12959;DHT22;6544;51.666;6.634;2023-04-24T13:27:00;10.50;55.70
12959;DHT22;6544;51.666;6.634;2023-04-24T13:29:28;10.60;1.00
12959;DHT22;6544;51.666;6.634;2023-04-24T13:31:55;10.30;16.90
12959;DHT22;6544;51.666;6.634;2023-04-24T13:34:22;10.40;18.70
12959;DHT22;6544;51.666;6.634;2023-04-24T13:36:50;10.50;23.40
12959;DHT22;6544;51.666;6.634;2023-04-24T13:39:17;10.60;9.70
12959;DHT22;6544;51.666;6.634;2023-04-24T13:41:46;10.80;1.00
12959;DHT22;6544;51.666;6.634;2023-04-24T13:44:13;10.90;1.00
12959;DHT22;6544;51.666;6.634;2023-04-24T13:46:41;10.80;1.00
12959;DHT22;6544;51.666;6.634;2023-04-24T13:49:09;10.70;1.00
12959;DHT22;6544;51.666;6.634;2023-04-24T13:51:36;10.50;99.90
12959;DHT22;6544;51.666;6.634;2023-04-24T13:54:03;10.40;99.90
12959;DHT22;6544;51.666;6.634;2023-04-24T13:56:30;10.20;99.90
12959;DHT22;6544;51.666;6.634;2023-04-24T13:58:58;10.30;99.90
12959;DHT22;6544;51.666;6.634;2023-04-24T14:01:25;10.20;1.00
12959;DHT22;6544;51.666;6.634;2023-04-24T14:03:53;10.00;1.00
12959;DHT22;6544;51.666;6.634;2023-04-24T14:06:20;9.90;1.00
12959;DHT22;6544;51.666;6.634;2023-04-24T14:08:51;9.80;1.00
12959;DHT22;6544;51.666;6.634;2023-04-24T14:11:19;9.90;1.00
12959;DHT22;6544;51.666;6.634;2023-04-24T14:13:46;10.10;1.00
12959;DHT22;6544;51.666;6.634;2023-04-24T14:16:14;10.20;1.00
12959;DHT22;6544;51.666;6.634;2023-04-24T14:18:41;10.20;1.00
12959;DHT22;6544;51.666;6.634;2023-04-24T14:21:10;10.30;1.00
12959;DHT22;6544;51.666;6.634;2023-04-24T14:23:37;10.20;1.00
12959;DHT22;6544;51.666;6.634;2023-04-24T14:26:04;10.50;1.00
12959;DHT22;6544;51.666;6.634;2023-04-24T14:28:30;10.50;1.00
12959;DHT22;6544;51.666;6.634;2023-04-24T14:30:57;10.40;99.90
12959;DHT22;6544;51.666;6.634;2023-04-24T14:33:26;10.60;99.90
12959;DHT22;6544;51.666;6.634;2023-04-24T14:35:53;10.60;99.90
12959;DHT22;6544;51.666;6.634;2023-04-24T14:38:20;10.50;99.90
12959;DHT22;6544;51.666;6.634;2023-04-24T14:40:47;10.60;99.90
12959;DHT22;6544;51.666;6.634;2023-04-24T14:43:14;10.80;99.90
12959;DHT22;6544;51.666;6.634;2023-04-24T14:45:40;11.00;99.90
12959;DHT22;6544;51.666;6.634;2023-04-24T14:48:07;11.00;21.70
12959;DHT22;6544;51.666;6.634;2023-04-24T14:50:36;11.00;1.00
12959;DHT22;6544;51.666;6.634;2023-04-24T14:53:03;11.10;1.00
12959;DHT22;6544;51.666;6.634;2023-04-24T14:55:30;11.00;1.00
12959;DHT22;6544;51.666;6.634;2023-04-24T14:58:00;10.90;1.00
12959;DHT22;6544;51.666;6.634;2023-04-24T15:00:27;10.90;1.00
12959;DHT22;6544;51.666;6.634;2023-04-24T15:02:54;11.00;1.00
12959;DHT22;6544;51.666;6.634;2023-04-24T15:05:21;10.90;1.00
12959;DHT22;6544;51.666;6.634;2023-04-24T15:07:51;10.80;1.00
12959;DHT22;6544;51.666;6.634;2023-04-24T15:10:18;10.90;1.00
12959;DHT22;6544;51.666;6.634;2023-04-24T15:12:48;10.70;1.00
12959;DHT22;6544;51.666;6.634;2023-04-24T15:15:15;10.80;1.00
12959;DHT22;6544;51.666;6.634;2023-04-24T15:17:42;10.70;1.00
12959;DHT22;6544;51.666;6.634;2023-04-24T15:20:09;10.40;99.90
12959;DHT22;6544;51.666;6.634;2023-04-24T15:22:36;10.20;99.90
12959;DHT22;6544;51.666;6.634;2023-04-24T15:25:06;10.30;99.90
12959;DHT22;6544;51.666;6.634;2023-04-24T15:27:40;10.00;99.90
12959;DHT22;6544;51.666;6.634;2023-04-24T15:30:08;9.80;99.90
12959;DHT22;6544;51.666;6.634;2023-04-24T15:32:36;9.90;99.90
12959;DHT22;6544;51.666;6.634;2023-04-24T15:35:04;9.80;99.90
12959;DHT22;6544;51.666;6.634;2023-04-24T15:37:31;9.90;99.90
12959;DHT22;6544;51.666;6.634;2023-04-24T15:39:58;10.00;93.40
12959;DHT22;6544;51.666;6.634;2023-04-24T15:42:27;10.10;97.30
12959;DHT22;6544;51.666;6.634;2023-04-24T15:44:54;10.20;55.80
12959;DHT22;6544;51.666;6.634;2023-04-24T15:47:20;10.10;1.00
12959;DHT22;6544;51.666;6.634;2023-04-24T15:49:47;10.00;1.60
12959;DHT22;6544;51.666;6.634;2023-04-24T15:52:14;10.20;29.50
12959;DHT22;6544;51.666;6.634;2023-04-24T15:54:41;10.30;1.00
12959;DHT22;6544;51.666;6.634;2023-04-24T15:57:08;10.40;1.00
12959;DHT22;6544;51.666;6.634;2023-04-24T15:59:36;10.20;1.00
12959;DHT22;6544;51.666;6.634;2023-04-24T16:02:08;10.40;1.00
12959;DHT22;6544;51.666;6.634;2023-04-24T16:04:36;10.40;1.00
12959;DHT22;6544;51.666;6.634;2023-04-24T16:07:03;10.30;1.00
12959;DHT22;6544;51.666;6.634;2023-04-24T16:09:30;10.20;1.00